createdAt,value
2019-02-22T00:00:38.296Z,78.63
2019-02-22T00:03:08.432Z,72.73
2019-02-22T00:05:38.506Z,66.67
2019-02-22T00:08:08.699Z,66.53
2019-02-22T00:10:38.827Z,70.17
2019-02-22T00:13:08.951Z,61.33
2019-02-22T00:15:39.469Z,65.57
2019-02-22T00:18:09.587Z,69.57
2019-02-22T00:20:41.158Z,63.50
2019-02-22T00:23:11.144Z,62.87
2019-02-22T00:25:41.156Z,60.67
2019-02-22T00:28:11.093Z,56.67
2019-02-22T00:30:41.241Z,63.83
2019-02-22T00:33:11.249Z,57.63
2019-02-22T00:35:41.230Z,61.47
2019-02-22T00:38:11.446Z,56.50
2019-02-22T00:40:41.606Z,58.93
2019-02-22T00:43:11.557Z,61.33
2019-02-22T00:45:41.533Z,54.53
2019-02-22T00:48:11.472Z,54.27
2019-02-22T00:50:41.390Z,55.30
2019-02-22T00:53:11.501Z,59.23
2019-02-22T00:55:41.467Z,52.87
2019-02-22T00:58:11.384Z,51.77
2019-02-22T01:00:41.369Z,45.70
2019-02-22T01:03:11.406Z,50.53
2019-02-22T01:05:41.458Z,48.53
2019-02-22T01:08:11.482Z,48.97
2019-02-22T01:10:41.385Z,49.03
2019-02-22T01:13:11.520Z,50.70
2019-02-22T01:15:41.588Z,49.20
2019-02-22T01:18:11.503Z,44.50
2019-02-22T01:20:41.455Z,43.87
2019-02-22T01:23:11.467Z,45.63
2019-02-22T01:25:41.496Z,44.00
2019-02-22T01:28:11.412Z,43.23
2019-02-22T01:30:41.419Z,44.10
2019-02-22T01:33:11.330Z,46.17
2019-02-22T01:35:41.302Z,42.77
2019-02-22T01:38:11.290Z,42.73
2019-02-22T01:40:43.949Z,41.23
2019-02-22T01:43:12.802Z,41.67
2019-02-22T01:45:42.779Z,42.80
2019-02-22T01:48:12.762Z,39.50
2019-02-22T01:50:42.769Z,42.93
2019-02-22T01:53:12.715Z,41.63
2019-02-22T01:55:42.754Z,37.73
2019-02-22T01:58:12.841Z,44.17
2019-02-22T02:00:42.910Z,40.23
2019-02-22T02:03:12.924Z,39.23
2019-02-22T02:05:43.006Z,35.57
2019-02-22T02:08:13.082Z,35.97
2019-02-22T02:10:53.674Z,35.73
2019-02-22T02:13:14.712Z,38.97
2019-02-22T02:15:44.675Z,34.33
2019-02-22T02:18:14.829Z,35.40
2019-02-22T02:20:44.890Z,32.57
2019-02-22T02:23:14.797Z,33.03
2019-02-22T02:25:44.820Z,34.37
2019-02-22T02:28:14.783Z,33.13
2019-02-22T02:30:44.767Z,31.53
2019-02-22T02:33:14.872Z,32.53
2019-02-22T02:35:44.890Z,32.77
2019-02-22T02:38:14.900Z,30.73
2019-02-22T02:40:45.055Z,32.07
2019-02-22T02:43:14.976Z,31.77
2019-02-22T02:45:45.018Z,32.17
2019-02-22T02:48:15.060Z,28.67
2019-02-22T02:50:45.183Z,32.53
2019-02-22T02:53:15.172Z,29.23
2019-02-22T02:55:45.119Z,28.13
2019-02-22T02:58:15.076Z,28.87
2019-02-22T03:00:45.138Z,31.77
2019-02-22T03:03:15.171Z,28.27
2019-02-22T03:06:06.804Z,26.07
2019-02-22T03:08:37.343Z,28.43
2019-02-22T03:11:19.651Z,28.70
2019-02-22T03:13:38.958Z,26.10
2019-02-22T03:16:08.987Z,25.57
2019-02-22T03:18:39.031Z,27.73
2019-02-22T03:21:09.021Z,27.13
2019-02-22T03:23:39.130Z,29.60
2019-02-22T03:26:09.157Z,27.00
2019-02-22T03:28:39.083Z,27.20
2019-02-22T03:31:09.181Z,26.87
2019-02-22T03:33:39.218Z,27.50
2019-02-22T03:36:09.314Z,27.73
2019-02-22T03:38:39.379Z,27.87
2019-02-22T03:41:09.490Z,28.23
2019-02-22T03:43:39.518Z,25.50
2019-02-22T03:46:09.494Z,29.10
2019-02-22T03:48:39.507Z,24.70
2019-02-22T03:51:09.426Z,24.63
2019-02-22T03:53:47.136Z,26.00
2019-02-22T03:56:17.333Z,28.10
2019-02-22T03:58:47.250Z,25.47
2019-02-22T04:01:17.493Z,27.27
2019-02-22T04:03:47.606Z,25.07
2019-02-22T04:06:17.586Z,30.13
2019-02-22T04:08:47.534Z,24.77
2019-02-22T04:11:17.615Z,24.67
2019-02-22T04:13:47.896Z,23.10
2019-02-22T04:16:17.864Z,21.67
2019-02-22T04:18:47.900Z,24.67
2019-02-22T04:21:17.931Z,21.27
2019-02-22T04:23:47.952Z,22.57
2019-02-22T04:26:17.882Z,22.80
2019-02-22T04:28:47.992Z,25.73
2019-02-22T04:31:17.914Z,20.90
2019-02-22T04:33:47.865Z,25.23
2019-02-22T04:36:17.802Z,21.80
2019-02-22T04:38:47.927Z,19.37
2019-02-22T04:41:18.029Z,19.87
2019-02-22T04:43:47.969Z,23.07
2019-02-22T04:46:18.273Z,19.63
2019-02-22T04:48:48.360Z,24.27
2019-02-22T04:51:18.448Z,19.83
2019-02-22T04:53:48.378Z,21.20
2019-02-22T04:56:19.482Z,19.93
2019-02-22T04:58:49.361Z,21.60
2019-02-22T05:01:19.267Z,19.47
2019-02-22T05:03:50.238Z,20.80
2019-02-22T05:06:20.191Z,19.90
2019-02-22T05:08:50.131Z,19.60
2019-02-22T05:11:20.134Z,19.33
2019-02-22T05:13:50.073Z,19.50
2019-02-22T05:16:20.034Z,21.23
2019-02-22T05:18:50.030Z,21.93
2019-02-22T05:21:19.951Z,24.53
2019-02-22T05:23:50.109Z,19.67
2019-02-22T05:26:20.182Z,22.90
2019-02-22T05:28:50.217Z,22.70
2019-02-22T05:31:20.141Z,21.30
2019-02-22T05:33:50.335Z,19.50
2019-02-22T05:36:20.281Z,18.37
2019-02-22T05:38:50.342Z,19.73
2019-02-22T05:41:20.282Z,20.10
2019-02-22T05:43:50.242Z,22.73
2019-02-22T05:46:20.353Z,20.73
2019-02-22T05:48:50.342Z,19.80
2019-02-22T05:51:20.242Z,21.47
2019-02-22T05:53:50.370Z,23.20
2019-02-22T05:56:20.327Z,22.40
2019-02-22T05:58:50.398Z,21.33
2019-02-22T06:01:20.288Z,25.83
2019-02-22T06:03:50.283Z,29.77
2019-02-22T06:06:20.432Z,27.93
2019-02-22T06:08:50.405Z,29.60
2019-02-22T06:11:20.421Z,27.43
2019-02-22T06:13:52.239Z,31.20
2019-02-22T06:16:22.166Z,27.53
2019-02-22T06:18:52.139Z,33.83
2019-02-22T06:21:22.036Z,33.13
2019-02-22T06:23:52.048Z,41.13
2019-02-22T06:26:21.979Z,53.07
2019-02-22T06:28:52.042Z,58.77
2019-02-22T06:31:22.080Z,72.63
2019-02-22T06:33:52.330Z,68.70
2019-02-22T06:36:22.330Z,70.77
2019-02-22T06:38:52.315Z,81.73
2019-02-22T06:41:22.254Z,80.50
2019-02-22T06:43:52.189Z,77.63
2019-02-22T06:46:22.117Z,81.40
2019-02-22T06:48:52.183Z,76.87
2019-02-22T06:51:22.190Z,74.87
2019-02-22T06:53:52.105Z,83.20
2019-02-22T06:56:24.217Z,76.97
2019-02-22T06:58:53.708Z,81.43
2019-02-22T07:01:23.622Z,72.80
2019-02-22T07:03:53.684Z,75.20
2019-02-22T07:06:23.648Z,66.87
2019-02-22T07:08:53.677Z,74.00
2019-02-22T07:11:57.868Z,77.20
2019-02-22T07:14:27.773Z,73.87
2019-02-22T07:16:57.838Z,70.53
2019-02-22T07:19:27.965Z,71.00
2019-02-22T07:21:58.057Z,70.87
2019-02-22T07:24:27.951Z,64.23
2019-02-22T07:26:58.025Z,66.63
2019-02-22T07:29:28.018Z,63.33
2019-02-22T07:32:05.981Z,61.93
2019-02-22T07:34:29.757Z,64.53
2019-02-22T07:36:59.851Z,60.83
2019-02-22T07:39:29.971Z,64.07
2019-02-22T07:41:59.903Z,59.77
2019-02-22T07:44:29.948Z,58.27
2019-02-22T07:46:59.965Z,57.17
2019-02-22T07:49:30.212Z,57.00
2019-02-22T07:52:00.204Z,58.73
2019-02-22T07:54:30.253Z,58.27
2019-02-22T07:57:00.149Z,51.20
2019-02-22T07:59:30.070Z,55.30
2019-02-22T08:02:00.213Z,48.03
2019-02-22T08:04:30.248Z,50.63
2019-02-22T08:07:00.363Z,47.10
2019-02-22T08:09:30.413Z,43.07
2019-02-22T08:12:00.341Z,42.67
2019-02-22T08:14:30.258Z,46.10
2019-02-22T08:17:00.286Z,41.93
2019-02-22T08:19:30.342Z,45.23
2019-02-22T08:22:00.403Z,42.23
2019-02-22T08:24:30.593Z,46.53
2019-02-22T08:27:00.469Z,42.00
2019-02-22T08:29:30.390Z,43.97
2019-02-22T08:32:01.498Z,42.90
2019-02-22T08:34:31.412Z,40.37
2019-02-22T08:37:01.334Z,41.13
2019-02-22T08:39:31.419Z,42.20
2019-02-22T08:42:01.479Z,37.70
2019-02-22T08:44:31.511Z,39.17
2019-02-22T08:47:01.491Z,38.37
2019-02-22T08:49:31.498Z,38.93
2019-02-22T08:52:01.502Z,36.50
2019-02-22T08:54:31.501Z,34.17
2019-02-22T08:57:01.483Z,33.50
2019-02-22T08:59:31.406Z,31.17
2019-02-22T09:02:01.703Z,32.10
2019-02-22T09:04:31.615Z,34.20
2019-02-22T09:07:01.534Z,30.47
2019-02-22T09:09:31.706Z,28.93
2019-02-22T09:12:01.772Z,30.63
2019-02-22T09:14:31.816Z,28.73
2019-02-22T09:17:01.914Z,29.73
2019-02-22T09:19:32.043Z,29.90
2019-02-22T09:22:02.049Z,31.67
2019-02-22T09:24:32.034Z,25.13
2019-02-22T09:27:02.078Z,25.20
2019-02-22T09:29:32.277Z,28.03
2019-02-22T09:32:02.328Z,30.37
2019-02-22T09:34:32.207Z,24.53
2019-02-22T09:37:02.231Z,24.13
2019-02-22T09:39:32.251Z,28.47
2019-02-22T09:42:02.165Z,25.83
2019-02-22T09:44:32.177Z,26.80
2019-02-22T09:47:02.150Z,26.37
2019-02-22T09:49:32.248Z,26.20
2019-02-22T09:52:02.324Z,24.80
2019-02-22T09:54:32.356Z,25.47
2019-02-22T09:57:02.301Z,23.93
2019-02-22T09:59:32.339Z,24.70
2019-02-22T10:02:02.431Z,24.97
2019-02-22T10:04:32.347Z,23.87
2019-02-22T10:07:02.399Z,23.50
2019-02-22T10:09:32.443Z,25.33
2019-02-22T10:12:02.356Z,26.13
2019-02-22T10:14:32.353Z,25.97
2019-02-22T10:17:02.280Z,23.87
2019-02-22T10:19:32.222Z,23.30
2019-02-22T10:22:02.380Z,25.87
2019-02-22T10:24:32.275Z,24.97
2019-02-22T10:27:02.268Z,22.37
2019-02-22T10:29:32.247Z,22.73
2019-02-22T10:32:02.172Z,23.10
2019-02-22T10:34:32.242Z,28.63
2019-02-22T10:37:02.300Z,22.03
2019-02-22T10:39:32.249Z,24.80
2019-02-22T10:42:02.320Z,26.80
2019-02-22T10:44:32.297Z,22.60
2019-02-22T10:47:02.186Z,22.27
2019-02-22T10:49:32.201Z,22.67
2019-02-22T10:52:02.221Z,23.63
2019-02-22T10:54:32.223Z,25.47
2019-02-22T10:57:02.193Z,21.80
2019-02-22T10:59:32.245Z,20.63
2019-02-22T11:02:02.184Z,22.87
2019-02-22T11:04:32.154Z,24.20
2019-02-22T11:07:02.093Z,21.33
2019-02-22T11:09:32.158Z,21.30
2019-02-22T11:12:02.270Z,19.83
2019-02-22T11:14:32.383Z,21.37
2019-02-22T11:17:03.619Z,25.97
2019-02-22T11:19:33.616Z,25.20
2019-02-22T11:22:03.637Z,24.43
2019-02-22T11:24:33.707Z,24.37
2019-02-22T11:27:03.735Z,21.67
2019-02-22T11:29:33.769Z,25.70
2019-02-22T11:32:03.885Z,22.27
2019-02-22T11:34:33.785Z,24.00
2019-02-22T11:37:03.780Z,23.23
2019-02-22T11:39:33.906Z,21.40
2019-02-22T11:42:03.836Z,19.87
2019-02-22T11:44:40.232Z,23.13
2019-02-22T11:47:05.481Z,24.00
2019-02-22T11:49:35.515Z,22.03
2019-02-22T11:52:05.639Z,21.10
2019-02-22T11:54:35.736Z,25.53
2019-02-22T11:57:06.360Z,22.17
2019-02-22T11:59:36.427Z,26.67
2019-02-22T12:02:06.499Z,22.80
2019-02-22T12:04:36.430Z,26.50
2019-02-22T12:07:07.658Z,23.57
2019-02-22T12:09:37.926Z,20.90
2019-02-22T12:12:07.945Z,23.87
2019-02-22T12:14:38.070Z,22.17
2019-02-22T12:17:08.152Z,24.77
2019-02-22T12:19:38.249Z,24.27
2019-02-22T12:22:08.302Z,22.67
2019-02-22T12:24:38.270Z,22.20
2019-02-22T12:27:08.285Z,28.10
2019-02-22T12:29:38.306Z,27.43
2019-02-22T12:32:08.330Z,23.60
2019-02-22T12:34:38.251Z,26.13
2019-02-22T12:37:08.501Z,23.07
2019-02-22T12:39:38.570Z,20.23
2019-02-22T12:42:08.525Z,19.97
2019-02-22T12:44:38.757Z,20.13
2019-02-22T12:47:08.826Z,21.37
2019-02-22T12:49:40.206Z,19.93
2019-02-22T12:52:10.406Z,20.77
2019-02-22T12:54:40.523Z,16.87
2019-02-22T12:57:10.551Z,19.23
2019-02-22T12:59:40.442Z,21.07
2019-02-22T13:02:10.589Z,17.87
2019-02-22T13:04:40.602Z,21.27
2019-02-22T13:07:10.746Z,22.23
2019-02-22T13:09:40.723Z,25.37
2019-02-22T13:12:13.981Z,22.73
2019-02-22T13:14:42.376Z,20.83
2019-02-22T13:17:12.510Z,20.93
2019-02-22T13:19:42.574Z,25.00
2019-02-22T13:22:12.482Z,19.53
2019-02-22T13:24:42.455Z,20.90
2019-02-22T13:27:12.498Z,21.80
2019-02-22T13:29:42.386Z,25.50
2019-02-22T13:32:12.593Z,25.33
2019-02-22T13:34:42.523Z,23.57
2019-02-22T13:37:12.577Z,26.53
2019-02-22T13:39:42.728Z,25.23
2019-02-22T13:42:12.666Z,26.70
2019-02-22T13:44:42.851Z,25.43
2019-02-22T13:47:12.818Z,22.87
2019-02-22T13:49:43.005Z,24.07
2019-02-22T13:52:13.181Z,24.67
2019-02-22T13:54:44.324Z,26.00
2019-02-22T13:57:14.595Z,24.53
2019-02-22T13:59:44.660Z,24.90
2019-02-22T14:02:14.629Z,25.57
2019-02-22T14:04:44.692Z,25.70
2019-02-22T14:07:14.575Z,25.80
2019-02-22T14:09:44.530Z,24.47
2019-02-22T14:12:14.570Z,25.30
2019-02-22T14:14:44.546Z,23.60
2019-02-22T14:17:14.505Z,21.30
2019-02-22T14:19:44.546Z,24.07
2019-02-22T14:22:14.645Z,23.03
2019-02-22T14:24:44.540Z,21.93
2019-02-22T14:27:14.522Z,19.13
2019-02-22T14:29:44.507Z,22.07
2019-02-22T14:32:14.604Z,31.20
2019-02-22T14:34:44.586Z,36.80
2019-02-22T14:37:14.538Z,34.03
2019-02-22T14:39:44.878Z,39.73
2019-02-22T14:42:15.040Z,42.60
2019-02-22T14:44:45.060Z,42.77
2019-02-22T14:47:15.100Z,48.03
2019-02-22T14:49:45.103Z,48.77
2019-02-22T14:52:15.108Z,50.07
2019-02-22T14:54:45.135Z,52.60
2019-02-22T14:57:15.235Z,50.80
2019-02-22T14:59:45.156Z,55.53
2019-02-22T15:02:15.158Z,49.90
2019-02-22T15:04:45.283Z,51.33
2019-02-22T15:07:15.408Z,51.37
2019-02-22T15:09:45.426Z,54.97
2019-02-22T15:12:15.396Z,60.60
2019-02-22T15:14:45.525Z,66.50
2019-02-22T15:17:34.547Z,65.33
2019-02-22T15:20:04.967Z,72.83
2019-02-22T15:22:34.922Z,76.00
2019-02-22T15:25:05.555Z,78.13
2019-02-22T15:27:36.300Z,72.87
2019-02-22T15:30:06.779Z,79.10
2019-02-22T15:32:36.830Z,78.80
2019-02-22T15:35:08.661Z,80.77
2019-02-22T15:37:38.679Z,72.50
2019-02-22T15:40:10.195Z,72.30
2019-02-22T15:42:40.703Z,66.30
2019-02-22T15:45:11.922Z,66.13
2019-02-22T15:47:41.986Z,63.07
2019-02-22T15:50:13.783Z,63.73
2019-02-22T15:52:44.417Z,63.53
2019-02-22T15:55:14.635Z,55.93
2019-02-22T15:57:44.591Z,47.93
2019-02-22T16:00:18.059Z,47.67
2019-02-22T16:02:48.216Z,41.40
2019-02-22T16:05:24.942Z,38.63
2019-02-22T16:07:55.062Z,40.43
2019-02-22T16:10:25.254Z,37.77
2019-02-22T16:12:55.532Z,32.50
2019-02-22T16:15:25.637Z,31.27
2019-02-22T16:17:55.560Z,31.37
2019-02-22T16:20:25.658Z,31.17
2019-02-22T16:22:55.741Z,29.90
2019-02-22T16:25:25.684Z,28.47
2019-02-22T16:27:55.693Z,28.13
2019-02-22T16:30:27.382Z,27.37
2019-02-22T16:32:57.494Z,23.73
2019-02-22T16:35:27.573Z,29.10
2019-02-22T16:37:57.494Z,27.87
2019-02-22T16:40:27.542Z,29.80
2019-02-22T16:42:57.662Z,25.83
2019-02-22T16:45:27.698Z,27.73
2019-02-22T16:47:57.622Z,25.70
2019-02-22T16:50:27.600Z,27.03
2019-02-22T16:52:57.550Z,25.67
2019-02-22T16:55:27.614Z,24.70
2019-02-22T16:57:57.647Z,25.83
2019-02-22T17:00:27.801Z,31.90
2019-02-22T17:02:57.726Z,33.77
2019-02-22T17:05:27.898Z,35.03
2019-02-22T17:07:57.957Z,34.97
2019-02-22T17:10:27.943Z,34.60
2019-02-22T17:12:57.847Z,37.23
2019-02-22T17:15:27.848Z,38.87
2019-02-22T17:17:57.751Z,40.87
2019-02-22T17:20:27.724Z,36.00
2019-02-22T17:22:57.763Z,39.70
2019-02-22T17:25:27.830Z,40.37
2019-02-22T17:27:57.967Z,43.77
2019-02-22T17:30:27.987Z,42.03
2019-02-22T17:32:57.881Z,44.50
2019-02-22T17:35:27.881Z,50.60
2019-02-22T17:37:57.807Z,49.03
2019-02-22T17:40:28.038Z,48.37
2019-02-22T17:42:57.980Z,53.97
2019-02-22T17:45:27.945Z,50.57
2019-02-22T17:47:57.871Z,50.73
2019-02-22T17:50:27.927Z,47.43
2019-02-22T17:52:57.882Z,55.60
2019-02-22T17:55:27.796Z,51.53
2019-02-22T17:57:57.835Z,56.07
2019-02-22T18:00:27.743Z,55.10
2019-02-22T18:02:57.663Z,57.57
2019-02-22T18:05:27.761Z,53.57
2019-02-22T18:07:57.776Z,61.83
2019-02-22T18:10:27.821Z,58.43
2019-02-22T18:12:57.910Z,63.00
2019-02-22T18:15:27.863Z,60.90
2019-02-22T18:17:57.802Z,62.47
2019-02-22T18:20:27.919Z,61.80
2019-02-22T18:22:57.913Z,59.73
2019-02-22T18:25:27.974Z,57.90
2019-02-22T18:27:58.015Z,62.77
2019-02-22T18:30:28.075Z,58.47
2019-02-22T18:32:58.215Z,66.13
2019-02-22T18:35:28.219Z,60.90
2019-02-22T18:37:58.222Z,63.33
2019-02-22T18:40:28.126Z,55.50
2019-02-22T18:42:58.308Z,61.07
2019-02-22T18:45:28.175Z,64.30
2019-02-22T18:47:58.286Z,56.60
2019-02-22T18:50:28.424Z,55.00
2019-02-22T18:52:58.406Z,58.73
2019-02-22T18:55:28.392Z,55.53
2019-02-22T18:57:58.473Z,56.83
2019-02-22T19:00:28.423Z,60.33
2019-02-22T19:02:58.349Z,57.33
2019-02-22T19:05:28.382Z,56.90
2019-02-22T19:07:58.333Z,58.27
2019-02-22T19:10:28.254Z,59.53
2019-02-22T19:12:58.306Z,63.47
2019-02-22T19:15:28.309Z,63.57
2019-02-22T19:17:58.230Z,65.07
2019-02-22T19:20:28.217Z,64.03
2019-02-22T19:22:58.140Z,68.63
2019-02-22T19:25:29.267Z,63.57
2019-02-22T19:27:59.327Z,65.30
2019-02-22T19:30:29.384Z,67.77
2019-02-22T19:32:59.524Z,64.80
2019-02-22T19:35:29.456Z,66.73
2019-02-22T19:37:59.818Z,68.67
2019-02-22T19:40:29.913Z,65.70
2019-02-22T19:42:59.928Z,70.63
2019-02-22T19:45:29.973Z,70.57
2019-02-22T19:47:59.966Z,68.63
2019-02-22T19:50:40.866Z,76.53
2019-02-22T19:53:02.335Z,89.70
2019-02-22T19:55:32.420Z,90.93
2019-02-22T19:58:02.353Z,96.87
2019-02-22T20:00:32.306Z,101.13
2019-02-22T20:03:02.366Z,102.60
2019-02-22T20:05:32.972Z,110.00
2019-02-22T20:08:03.698Z,107.17
2019-02-22T20:10:34.645Z,115.27
2019-02-22T20:13:04.888Z,113.07
2019-02-22T20:15:35.154Z,125.40
2019-02-22T20:18:07.106Z,128.47
2019-02-22T20:20:37.488Z,125.57
2019-02-22T20:23:08.347Z,136.47
2019-02-22T20:25:38.670Z,135.67
2019-02-22T20:28:09.344Z,135.70
2019-02-22T20:30:40.536Z,147.00
2019-02-22T20:33:11.921Z,140.67
2019-02-22T20:35:43.294Z,141.23
2019-02-22T20:38:15.455Z,149.20
2019-02-22T20:40:47.595Z,144.73
2019-02-22T20:43:19.507Z,144.90
2019-02-22T20:45:51.492Z,133.33
2019-02-22T20:48:23.149Z,136.00
2019-02-22T20:50:55.261Z,136.63
2019-02-22T20:53:29.244Z,139.20
2019-02-22T20:56:02.566Z,146.63
2019-02-22T20:58:34.266Z,140.07
2019-02-22T21:01:14.389Z,144.50
2019-02-22T21:03:39.409Z,134.77
2019-02-22T21:06:11.109Z,132.23
2019-02-22T21:08:45.279Z,137.53
2019-02-22T21:11:16.926Z,125.47
2019-02-22T21:13:48.806Z,133.17
2019-02-22T21:16:19.810Z,129.63
2019-02-22T21:18:50.329Z,126.23
2019-02-22T21:21:20.462Z,122.33
2019-02-22T21:23:52.082Z,121.50
2019-02-22T21:26:22.286Z,111.87
2019-02-22T21:28:52.172Z,122.77
2019-02-22T21:31:22.207Z,111.63
2019-02-22T21:33:52.483Z,107.03
2019-02-22T21:36:22.507Z,105.27
2019-02-22T21:38:52.481Z,106.00
2019-02-22T21:41:22.659Z,104.97
2019-02-22T21:43:52.680Z,104.47
2019-02-22T21:46:22.714Z,101.27
2019-02-22T21:48:52.758Z,98.70
2019-02-22T21:51:22.853Z,100.50
2019-02-22T21:53:52.964Z,93.47
2019-02-22T21:56:23.126Z,88.50
2019-02-22T21:58:53.178Z,89.47
2019-02-22T22:01:23.231Z,89.63
2019-02-22T22:03:53.247Z,87.03
2019-02-22T22:06:23.303Z,83.70
2019-02-22T22:08:55.405Z,91.07
2019-02-22T22:11:25.030Z,84.73
2019-02-22T22:13:54.987Z,78.23
2019-02-22T22:16:24.999Z,76.57
2019-02-22T22:18:54.992Z,77.97
2019-02-22T22:21:24.947Z,73.67
2019-02-22T22:23:54.838Z,74.90
2019-02-22T22:26:24.866Z,75.13
2019-02-22T22:28:54.753Z,77.33
2019-02-22T22:31:24.746Z,68.47
2019-02-22T22:33:54.755Z,70.10
2019-02-22T22:36:24.840Z,69.77
2019-02-22T22:38:55.122Z,69.33
2019-02-22T22:41:25.096Z,71.67
2019-02-22T22:43:55.003Z,67.30
2019-02-22T22:46:42.834Z,65.90
2019-02-22T22:49:12.758Z,74.10
2019-02-22T22:51:42.682Z,67.67
2019-02-22T22:54:12.904Z,61.77
2019-02-22T22:56:42.869Z,68.83
2019-02-22T22:59:12.940Z,64.70
2019-02-22T23:01:43.186Z,66.50
2019-02-22T23:04:13.327Z,71.83
2019-02-22T23:06:43.457Z,68.83
2019-02-22T23:09:21.952Z,68.83
2019-02-22T23:11:52.158Z,68.20
2019-02-22T23:14:22.338Z,61.53
2019-02-22T23:16:52.503Z,62.60
2019-02-22T23:19:22.503Z,61.67
2019-02-22T23:21:52.655Z,57.60
2019-02-22T23:24:22.661Z,55.87
2019-02-22T23:26:52.603Z,58.67
2019-02-22T23:29:22.768Z,48.83
2019-02-22T23:31:52.790Z,47.33
2019-02-22T23:34:22.909Z,43.00
2019-02-22T23:36:52.966Z,39.67
2019-02-22T23:39:22.945Z,46.70
2019-02-22T23:41:52.975Z,42.17
2019-02-22T23:44:23.217Z,41.33
2019-02-22T23:46:53.113Z,41.10
2019-02-22T23:49:23.148Z,42.07
2019-02-22T23:51:53.378Z,36.97
2019-02-22T23:54:23.309Z,31.80
2019-02-22T23:56:53.269Z,34.23
2019-02-22T23:59:23.245Z,36.70
